This is the latest recevied weather packets stored in our database for station/object KB3AWQ. If no packets are shown the sender has not sent any weather packets the latest 10 day(s).
| Time | Temp. | Humidity | Pressure | Rain* | Wind** | Luminosity | Snow |
|---|---|---|---|---|---|---|---|
| 1777490667 | 13.33° C | 92% | 1009.7 hPa | 0.76 mm | - | 95 W/m² | - |
| 1777490367 | 13.33° C | 92% | 1009.8 hPa | 0.76 mm | - | 93 W/m² | - |
| 1777490066 | 13.33° C | 93% | 1010 hPa | 0.76 mm | - | 91 W/m² | - |
| 1777489767 | 12.78° C | 92% | 1009.7 hPa | 0.76 mm | - | 120 W/m² | - |
| 1777489467 | 12.78° C | 93% | 1009.8 hPa | 0.76 mm | - | 65 W/m² | - |
| 1777489167 | 12.78° C | 92% | 1009.7 hPa | 0.76 mm | - | 61 W/m² | - |
| 1777488866 | 12.78° C | 92% | 1009.6 hPa | 0.76 mm | - | 110 W/m² | - |
| 1777488567 | 12.78° C | 93% | 1009.9 hPa | 0.76 mm | - | 77 W/m² | - |
| 1777488267 | 12.78° C | 94% | 1010.1 hPa | 0.51 mm | - | 77 W/m² | - |
| 1777487967 | 12.78° C | 93% | 1010.1 hPa | 0.51 mm | - | 82 W/m² | - |
| 1777487668 | 12.78° C | 93% | 1010.1 hPa | 0.25 mm | - | 86 W/m² | - |
| 1777487367 | 13.33° C | 93% | 1010.3 hPa | 0 mm | - | 77 W/m² | - |
| 1777487067 | 13.33° C | 92% | 1010.4 hPa | 0 mm | - | 66 W/m² | - |
| 1777486766 | 13.33° C | 92% | 1010.4 hPa | 0 mm | - | 82 W/m² | - |
| 1777486467 | 13.33° C | 90% | 1010.3 hPa | 0 mm | - | 118 W/m² | - |
| 1777486167 | 13.33° C | 90% | 1010.4 hPa | 0 mm | - | 109 W/m² | - |
| 1777485871 | 13.33° C | 89% | 1010.6 hPa | 0 mm | - | 89 W/m² | - |
| 1777485566 | 13.33° C | 89% | 1010.7 hPa | 0 mm | - | 83 W/m² | - |
| 1777485267 | 13.33° C | 89% | 1010.8 hPa | 0 mm | - | 92 W/m² | - |
| 1777484967 | 13.33° C | 89% | 1010.9 hPa | 0 mm | - | 93 W/m² | - |
| 1777484669 | 13.33° C | 89% | 1011.2 hPa | 0 mm | - | 88 W/m² | - |
| 1777484367 | 13.33° C | 89% | 1011.4 hPa | 0 mm | - | 85 W/m² | - |
| 1777484067 | 13.33° C | 89% | 1011.4 hPa | 0 mm | - | 92 W/m² | - |
| 1777483771 | 13.33° C | 90% | 1011.6 hPa | 0 mm | - | 64 W/m² | - |
| 1777483467 | 13.33° C | 90% | 1011.7 hPa | 0 mm | - | 64 W/m² | - |
* Rain latest hour (hover to see other rain measurements)
** Current wind speed in m/s (hover to see current wind gust speed)